Oran, Argentina
Current Conditions -  °F | °C
As of 3:00 PM on Tuesday 21 Oct 2014 (Local Time) from SASJ Reporting Station
Broken Clouds Broken Clouds  
Wind Chill: 81°   Ceiling: 20000
Heat Index: 81°   Visibility: 6mi
Dew Point: 57°   Wind: 5mph
Humidity: 45%   Direction: 180°S
Pressure: 30.06"   Gusts: NA
Location:  23.14°S, 64.32°W
Report Text: SASJ 211800Z 18004KT 9999 FEW030 BKN20027/14 Q1018
Loading
Personal Weather Stations






























Interactive Weather Map New forecast layout! Learn more

10-Day Weather Forecast

Advertisements
Track Severe Weather on mobile